createdAt,value
2019-03-19T00:00:12.267Z,82.53
2019-03-19T00:02:42.729Z,83.15
2019-03-19T00:05:13.291Z,83.08
2019-03-19T00:07:43.756Z,83.84
2019-03-19T00:10:14.280Z,83.42
2019-03-19T00:12:44.794Z,83.28
2019-03-19T00:15:15.454Z,83.16
2019-03-19T00:17:45.772Z,83.72
2019-03-19T00:20:16.187Z,83.40
2019-03-19T00:22:46.595Z,83.43
2019-03-19T00:25:17.022Z,83.03
2019-03-19T00:27:47.545Z,83.48
2019-03-19T00:30:17.955Z,83.34
2019-03-19T00:32:48.387Z,83.28
2019-03-19T00:35:18.781Z,83.61
2019-03-19T00:37:49.178Z,83.82
2019-03-19T00:40:19.622Z,82.73
2019-03-19T00:42:50.077Z,83.56
2019-03-19T00:45:20.556Z,83.16
2019-03-19T00:47:50.990Z,82.55
2019-03-19T00:50:21.491Z,83.08
2019-03-19T00:52:52.035Z,83.14
2019-03-19T00:55:22.462Z,82.12
2019-03-19T00:57:52.762Z,82.03
2019-03-19T01:00:23.219Z,82.31
2019-03-19T01:02:53.643Z,82.39
2019-03-19T01:05:24.043Z,82.29
2019-03-19T01:07:54.351Z,83.79
2019-03-19T01:10:24.797Z,82.81
2019-03-19T01:12:55.252Z,83.08
2019-03-19T01:15:25.665Z,83.20
2019-03-19T01:17:56.032Z,84.30
2019-03-19T01:20:26.415Z,83.58
2019-03-19T01:22:56.785Z,84.17
2019-03-19T01:25:27.080Z,84.07
2019-03-19T01:27:57.550Z,84.20
2019-03-19T01:30:28.032Z,84.40
2019-03-19T01:32:58.321Z,84.37
2019-03-19T01:35:28.713Z,84.61
2019-03-19T01:37:59.122Z,84.40
2019-03-19T01:40:29.598Z,84.56
2019-03-19T01:42:59.981Z,85.29
2019-03-19T01:45:30.474Z,85.11
2019-03-19T01:48:00.838Z,84.13
2019-03-19T01:50:31.336Z,84.36
2019-03-19T01:53:01.946Z,84.57
2019-03-19T01:55:32.397Z,84.22
2019-03-19T01:58:02.812Z,84.92
2019-03-19T02:00:33.307Z,85.01
2019-03-19T02:03:03.755Z,85.30
2019-03-19T02:05:34.139Z,84.85
2019-03-19T02:08:04.533Z,85.24
2019-03-19T02:10:35.013Z,84.61
2019-03-19T02:13:09.689Z,84.48
2019-03-19T02:15:43.734Z,82.76
2019-03-19T02:22:25.909Z,82.06
2019-03-19T02:25:04.874Z,84.13
2019-03-19T02:27:37.418Z,85.54
2019-03-19T02:30:14.245Z,84.95
2019-03-19T02:32:49.662Z,85.32
2019-03-19T02:35:22.502Z,84.14
2019-03-19T02:37:56.204Z,85.14
2019-03-19T02:40:31.007Z,83.68
2019-03-19T02:59:29.534Z,85.87
2019-03-19T03:08:07.878Z,85.77
2019-03-19T03:11:20.441Z,86.68
2019-03-19T03:14:38.421Z,86.10
2019-03-19T03:16:24.938Z,85.74
2019-03-19T03:19:01.748Z,86.42
2019-03-19T03:21:34.550Z,86.38
2019-03-19T03:24:14.539Z,85.55
2019-03-19T03:37:21.346Z,87.00
2019-03-19T03:40:06.491Z,87.68
2019-03-19T03:42:44.902Z,87.43
2019-03-19T03:45:27.837Z,87.28
2019-03-19T03:48:09.934Z,86.62
2019-03-19T03:51:08.293Z,86.12
2019-03-19T03:53:17.600Z,85.08
2019-03-19T04:01:11.693Z,85.89
2019-03-19T04:03:51.171Z,86.50
2019-03-19T04:06:25.009Z,85.67
2019-03-19T04:08:56.773Z,85.93
2019-03-19T04:11:31.472Z,85.87
2019-03-19T04:14:08.248Z,85.99
2019-03-19T04:16:51.200Z,86.00
2019-03-19T04:19:34.247Z,85.41
2019-03-19T04:22:54.696Z,85.58
2019-03-19T04:25:13.516Z,86.34
2019-03-19T04:27:58.699Z,86.79
2019-03-19T04:30:43.342Z,86.87
2019-03-19T04:33:20.801Z,87.17
2019-03-19T04:35:58.025Z,88.07
2019-03-19T04:38:52.304Z,87.84
2019-03-19T04:41:31.755Z,87.53
2019-03-19T04:49:00.740Z,85.83
2019-03-19T04:50:09.971Z,85.59
2019-03-19T04:52:40.608Z,84.97
2019-03-19T04:55:18.594Z,85.47
2019-03-19T04:57:53.940Z,86.02
2019-03-19T05:00:27.477Z,85.22
2019-03-19T05:03:00.275Z,85.63
2019-03-19T05:05:38.124Z,85.18
2019-03-19T05:08:13.619Z,84.91
2019-03-19T05:10:46.347Z,85.48
2019-03-19T05:13:17.399Z,85.87
2019-03-19T05:15:48.983Z,86.38
2019-03-19T05:18:28.548Z,86.49
2019-03-19T05:21:01.809Z,87.18
2019-03-19T05:23:34.161Z,86.91
2019-03-19T05:26:06.434Z,86.89
2019-03-19T05:28:41.874Z,87.36
2019-03-19T05:31:16.369Z,86.17
2019-03-19T05:33:53.271Z,85.94
2019-03-19T05:36:31.855Z,86.23
2019-03-19T05:39:00.068Z,86.22
2019-03-19T05:41:44.289Z,86.19
2019-03-19T05:44:15.089Z,87.07
2019-03-19T05:46:49.546Z,87.22
2019-03-19T05:49:32.631Z,87.46
2019-03-19T05:51:57.598Z,87.73
2019-03-19T05:54:38.125Z,87.87
2019-03-19T05:57:10.913Z,87.84
2019-03-19T05:59:42.550Z,87.38
2019-03-19T06:02:13.607Z,86.85
2019-03-19T06:04:46.662Z,86.75
2019-03-19T06:07:19.076Z,86.69
2019-03-19T06:10:19.381Z,86.64
2019-03-19T06:13:14.781Z,87.08
2019-03-19T06:15:49.754Z,87.09
2019-03-19T06:18:22.434Z,86.03
2019-03-19T06:20:58.005Z,86.25
2019-03-19T06:23:34.440Z,86.26
2019-03-19T06:26:10.389Z,86.34
2019-03-19T06:28:41.342Z,86.80
2019-03-19T06:31:38.500Z,86.20
2019-03-19T06:34:13.624Z,85.95
2019-03-19T06:36:46.443Z,85.74
2019-03-19T06:39:20.618Z,85.88
2019-03-19T06:42:10.755Z,85.72
2019-03-19T06:49:08.584Z,85.10
2019-03-19T06:52:02.632Z,84.50
2019-03-19T06:54:42.992Z,84.38
2019-03-19T06:57:38.707Z,83.80
2019-03-19T07:04:13.623Z,83.46
2019-03-19T07:06:48.198Z,82.78
2019-03-19T07:13:04.633Z,82.44
2019-03-19T07:15:35.071Z,82.40
2019-03-19T07:18:05.595Z,82.47
2019-03-19T07:21:01.137Z,82.40
2019-03-19T07:23:31.752Z,82.11
2019-03-19T07:26:05.540Z,82.06
2019-03-19T07:28:37.144Z,81.43
2019-03-19T07:31:09.987Z,81.12
2019-03-19T07:33:44.125Z,80.85
2019-03-19T07:36:15.428Z,80.49
2019-03-19T07:38:46.333Z,80.04
2019-03-19T07:41:17.780Z,78.88
2019-03-19T07:43:48.759Z,78.44
2019-03-19T07:46:19.798Z,77.79
2019-03-19T07:48:52.816Z,77.37
2019-03-19T07:51:23.392Z,76.50
2019-03-19T07:53:54.444Z,75.62
2019-03-19T07:56:25.690Z,74.90
2019-03-19T07:58:56.576Z,73.33
2019-03-19T08:01:27.368Z,71.19
2019-03-19T08:03:58.315Z,69.80
2019-03-19T08:06:29.204Z,69.45
2019-03-19T08:09:00.155Z,71.25
2019-03-19T08:11:37.574Z,70.06
2019-03-19T08:14:08.978Z,68.96
2019-03-19T08:16:39.937Z,67.55
2019-03-19T08:19:10.751Z,67.78
2019-03-19T08:21:41.610Z,65.84
2019-03-19T08:24:12.447Z,63.28
2019-03-19T08:26:43.476Z,56.37
2019-03-19T08:29:16.212Z,55.02
2019-03-19T08:31:47.285Z,51.64
2019-03-19T08:34:18.836Z,51.30
2019-03-19T08:36:52.973Z,52.64
2019-03-19T08:39:28.688Z,51.55
2019-03-19T08:42:02.378Z,50.89
2019-03-19T08:44:33.496Z,50.46
2019-03-19T08:47:05.838Z,48.46
2019-03-19T08:49:37.454Z,48.64
2019-03-19T08:52:19.760Z,48.58
2019-03-19T08:54:57.066Z,51.67
2019-03-19T08:57:41.334Z,54.98
2019-03-19T09:00:30.209Z,52.67
2019-03-19T09:03:11.235Z,48.81
2019-03-19T09:05:47.882Z,47.16
2019-03-19T09:08:52.144Z,45.04
2019-03-19T09:11:13.779Z,42.86
2019-03-19T09:13:44.315Z,41.97
2019-03-19T09:16:14.900Z,40.47
2019-03-19T09:18:45.377Z,38.65
2019-03-19T09:21:15.877Z,36.93
2019-03-19T09:23:46.328Z,37.02
2019-03-19T09:26:17.141Z,35.99
2019-03-19T09:28:47.606Z,31.95
2019-03-19T09:31:18.063Z,30.54
2019-03-19T09:33:48.482Z,30.88
2019-03-19T09:36:18.966Z,30.97
2019-03-19T09:38:49.358Z,32.17
2019-03-19T09:41:19.713Z,34.11
2019-03-19T09:43:50.127Z,36.00
2019-03-19T09:46:20.802Z,38.45
2019-03-19T09:48:51.305Z,40.98
2019-03-19T09:51:21.804Z,43.65
2019-03-19T09:53:52.293Z,45.12
2019-03-19T09:56:22.665Z,47.06
2019-03-19T09:58:57.474Z,48.88
2019-03-19T10:01:27.965Z,50.82
2019-03-19T10:03:58.415Z,48.58
2019-03-19T10:06:28.856Z,47.85
2019-03-19T10:08:59.238Z,40.00
2019-03-19T10:11:29.723Z,37.76
2019-03-19T10:14:02.203Z,35.69
2019-03-19T10:16:32.697Z,29.50
2019-03-19T10:19:03.129Z,29.55
2019-03-19T10:21:33.585Z,28.66
2019-03-19T10:24:04.013Z,26.27
2019-03-19T10:26:34.490Z,26.85
2019-03-19T10:29:04.931Z,29.72
2019-03-19T10:31:35.366Z,31.43
2019-03-19T10:34:05.860Z,33.30
2019-03-19T10:36:36.331Z,35.20
2019-03-19T10:39:09.338Z,36.87
2019-03-19T10:41:39.760Z,34.71
2019-03-19T10:44:10.154Z,30.50
2019-03-19T10:46:40.624Z,30.08
2019-03-19T10:49:11.046Z,29.53
2019-03-19T10:51:41.504Z,32.76
2019-03-19T10:54:12.171Z,32.89
2019-03-19T10:56:42.522Z,30.34
2019-03-19T10:59:12.881Z,30.36
2019-03-19T11:01:43.297Z,31.69
2019-03-19T11:04:13.689Z,33.19
2019-03-19T11:06:44.108Z,34.22
2019-03-19T11:09:14.641Z,36.41
2019-03-19T11:11:45.192Z,39.64
2019-03-19T11:14:15.686Z,41.63
2019-03-19T11:16:46.188Z,41.56
2019-03-19T11:19:16.533Z,41.58
2019-03-19T11:21:46.845Z,42.21
2019-03-19T11:24:17.187Z,41.05
2019-03-19T11:26:47.510Z,40.84
2019-03-19T11:29:18.070Z,37.84
2019-03-19T11:31:48.505Z,35.36
2019-03-19T11:34:18.910Z,34.78
2019-03-19T11:36:57.440Z,32.42
2019-03-19T11:39:21.609Z,33.45
2019-03-19T11:41:52.002Z,32.60
2019-03-19T11:44:22.579Z,33.07
2019-03-19T11:46:53.677Z,33.30
2019-03-19T11:49:24.223Z,32.97
2019-03-19T11:51:56.338Z,34.00
2019-03-19T11:54:26.828Z,30.21
2019-03-19T11:56:57.348Z,30.40
2019-03-19T11:59:27.800Z,30.47
2019-03-19T12:01:58.256Z,32.00
2019-03-19T12:04:28.825Z,34.29
2019-03-19T12:06:59.196Z,38.37
2019-03-19T12:09:29.536Z,37.69
2019-03-19T12:11:59.889Z,37.10
2019-03-19T12:14:30.386Z,37.36
2019-03-19T12:17:00.876Z,36.43
2019-03-19T12:19:31.406Z,37.01
2019-03-19T12:22:01.933Z,36.77
2019-03-19T12:24:32.873Z,38.02
2019-03-19T12:27:03.440Z,36.63
2019-03-19T12:29:33.933Z,36.48
2019-03-19T12:32:04.562Z,36.70
2019-03-19T12:34:35.073Z,37.19
2019-03-19T12:37:05.474Z,31.81
2019-03-19T12:39:35.946Z,28.64
2019-03-19T12:42:06.377Z,23.88
2019-03-19T12:44:36.855Z,23.81
2019-03-19T12:47:07.235Z,25.46
2019-03-19T12:49:37.633Z,27.56
2019-03-19T12:52:08.216Z,26.64
2019-03-19T12:54:38.634Z,28.42
2019-03-19T12:57:09.104Z,29.57
2019-03-19T12:59:39.483Z,31.83
2019-03-19T13:02:10.259Z,33.54
2019-03-19T13:04:40.799Z,34.20
2019-03-19T13:07:11.305Z,36.01
2019-03-19T13:09:41.838Z,41.04
2019-03-19T13:12:12.205Z,43.21
2019-03-19T13:14:42.764Z,41.49
2019-03-19T13:17:13.253Z,41.56
2019-03-19T13:19:43.826Z,41.84
2019-03-19T13:22:14.290Z,41.79
2019-03-19T13:24:44.719Z,41.95
2019-03-19T13:27:15.097Z,42.97
2019-03-19T13:29:45.422Z,42.22
2019-03-19T13:32:15.820Z,43.50
2019-03-19T13:34:46.245Z,43.31
2019-03-19T13:37:16.760Z,42.48
2019-03-19T13:39:47.282Z,44.20
2019-03-19T13:42:17.873Z,41.75
2019-03-19T13:44:48.332Z,40.88
2019-03-19T13:47:18.724Z,38.76
2019-03-19T13:49:49.107Z,36.35
2019-03-19T13:52:19.603Z,35.85
2019-03-19T13:54:50.067Z,34.04
2019-03-19T13:57:20.555Z,32.98
2019-03-19T13:59:50.939Z,33.54
2019-03-19T14:02:21.372Z,34.08
2019-03-19T14:04:51.813Z,35.44
2019-03-19T14:07:22.237Z,35.67
2019-03-19T14:09:52.762Z,36.83
2019-03-19T14:12:23.100Z,37.00
2019-03-19T14:14:53.971Z,38.82
2019-03-19T14:17:24.477Z,39.47
2019-03-19T14:19:55.040Z,39.32
2019-03-19T14:22:25.475Z,39.41
2019-03-19T14:24:55.867Z,39.53
2019-03-19T14:27:26.369Z,39.22
2019-03-19T14:29:56.808Z,39.31
2019-03-19T14:32:27.153Z,39.45
2019-03-19T14:34:57.620Z,39.62
2019-03-19T14:37:28.076Z,39.13
2019-03-19T14:39:58.625Z,39.95
2019-03-19T14:42:29.023Z,39.57
2019-03-19T14:44:59.438Z,36.18
2019-03-19T14:47:29.747Z,32.88
2019-03-19T14:50:00.323Z,28.99
2019-03-19T14:52:30.803Z,28.95
2019-03-19T14:55:01.222Z,30.19
2019-03-19T14:57:31.703Z,31.91
2019-03-19T15:00:02.134Z,33.45
2019-03-19T15:02:32.564Z,34.63
2019-03-19T15:05:03.034Z,35.49
2019-03-19T15:07:33.404Z,34.17
2019-03-19T15:10:03.888Z,32.98
2019-03-19T15:12:34.267Z,32.70
2019-03-19T15:15:05.129Z,32.87
2019-03-19T15:17:35.772Z,33.54
2019-03-19T15:20:08.258Z,34.86
2019-03-19T15:22:38.757Z,36.78
2019-03-19T15:25:09.339Z,37.52
2019-03-19T15:27:39.865Z,39.34
2019-03-19T15:30:10.368Z,39.33
2019-03-19T15:32:40.835Z,40.02
2019-03-19T15:35:11.687Z,40.47
2019-03-19T15:37:42.094Z,42.06
2019-03-19T15:40:13.605Z,41.52
2019-03-19T15:42:44.123Z,41.30
2019-03-19T15:45:14.643Z,41.62
2019-03-19T15:47:45.058Z,41.05
2019-03-19T15:50:16.135Z,41.93
2019-03-19T15:52:46.448Z,40.16
2019-03-19T15:55:16.880Z,42.63
2019-03-19T15:57:47.276Z,42.60
2019-03-19T16:00:17.765Z,41.57
2019-03-19T16:02:48.196Z,41.97
2019-03-19T16:05:18.652Z,43.44
2019-03-19T16:07:49.058Z,43.95
2019-03-19T16:10:19.443Z,44.12
2019-03-19T16:12:49.875Z,44.58
2019-03-19T16:15:21.114Z,43.90
2019-03-19T16:17:51.593Z,42.96
2019-03-19T16:20:21.997Z,42.44
2019-03-19T16:22:52.451Z,41.62
2019-03-19T16:25:22.813Z,43.24
2019-03-19T16:27:53.187Z,43.56
2019-03-19T16:30:23.535Z,42.80
2019-03-19T16:32:53.955Z,41.55
2019-03-19T16:35:24.371Z,43.93
2019-03-19T16:37:54.679Z,45.69
2019-03-19T16:40:25.131Z,45.06
2019-03-19T16:42:55.515Z,44.47
2019-03-19T16:45:25.965Z,44.97
2019-03-19T16:47:56.344Z,44.91
2019-03-19T16:50:26.773Z,44.58
2019-03-19T16:52:57.091Z,45.40
2019-03-19T16:55:27.533Z,45.64
2019-03-19T16:57:57.909Z,46.39
2019-03-19T17:00:28.322Z,47.08
2019-03-19T17:02:58.737Z,46.35
2019-03-19T17:05:29.121Z,46.40
2019-03-19T17:07:59.565Z,47.80
2019-03-19T17:10:30.041Z,49.14
2019-03-19T17:13:00.527Z,48.55
2019-03-19T17:15:30.971Z,48.08
2019-03-19T17:18:01.311Z,48.03
2019-03-19T17:20:31.705Z,49.42
2019-03-19T17:23:02.045Z,49.10
2019-03-19T17:25:32.426Z,49.94
2019-03-19T17:28:02.861Z,51.16
2019-03-19T17:30:33.384Z,51.37
2019-03-19T17:33:03.919Z,52.68
2019-03-19T17:35:34.571Z,54.09
2019-03-19T17:38:04.958Z,54.25
2019-03-19T17:40:41.370Z,53.96
2019-03-19T17:43:07.710Z,53.90
2019-03-19T17:45:38.144Z,54.29
2019-03-19T17:48:15.988Z,53.31
2019-03-19T17:50:40.797Z,54.13
2019-03-19T17:53:11.429Z,54.62
2019-03-19T17:55:41.895Z,53.98
2019-03-19T17:58:12.430Z,53.85
2019-03-19T18:00:44.265Z,57.31
2019-03-19T18:03:14.668Z,57.92
2019-03-19T18:05:45.102Z,57.72
2019-03-19T18:08:15.565Z,58.08
2019-03-19T18:10:46.022Z,58.53
2019-03-19T18:13:16.483Z,59.15
2019-03-19T18:15:46.922Z,59.85
2019-03-19T18:18:17.363Z,61.25
2019-03-19T18:20:47.815Z,61.31
2019-03-19T18:23:18.230Z,62.24
2019-03-19T18:25:48.693Z,61.88
2019-03-19T18:28:19.175Z,61.29
2019-03-19T18:30:49.711Z,60.65
2019-03-19T18:33:20.154Z,60.10
2019-03-19T18:35:50.637Z,59.90
2019-03-19T18:38:21.029Z,60.52
2019-03-19T18:40:51.381Z,60.53
2019-03-19T18:43:21.945Z,61.00
2019-03-19T18:45:52.357Z,60.29
2019-03-19T18:48:22.795Z,60.24
2019-03-19T18:50:53.213Z,60.51
2019-03-19T18:53:23.771Z,60.82
2019-03-19T18:55:54.221Z,60.56
2019-03-19T18:58:24.650Z,61.08
2019-03-19T19:00:54.955Z,61.26
2019-03-19T19:03:25.371Z,61.52
2019-03-19T19:05:55.765Z,63.67
2019-03-19T19:08:26.149Z,64.71
2019-03-19T19:10:56.655Z,63.40
2019-03-19T19:13:27.086Z,62.98
2019-03-19T19:15:57.493Z,63.56
2019-03-19T19:18:27.872Z,63.88
2019-03-19T19:20:58.239Z,63.55
2019-03-19T19:23:28.831Z,63.55
2019-03-19T19:26:00.402Z,63.86
2019-03-19T19:28:30.874Z,63.61
2019-03-19T19:31:02.239Z,63.46
2019-03-19T19:33:32.704Z,63.57
2019-03-19T19:36:03.174Z,63.78
2019-03-19T19:38:33.630Z,64.05
2019-03-19T19:41:04.337Z,64.10
2019-03-19T19:43:34.695Z,64.80
2019-03-19T19:46:05.990Z,64.64
2019-03-19T19:48:36.415Z,64.84
2019-03-19T19:51:06.885Z,64.59
2019-03-19T19:53:37.193Z,65.15
2019-03-19T19:56:09.256Z,64.67
2019-03-19T19:58:42.043Z,64.48
2019-03-19T20:01:12.862Z,65.76
2019-03-19T20:03:43.154Z,65.75
2019-03-19T20:06:13.503Z,66.34
2019-03-19T20:08:44.195Z,66.24
2019-03-19T20:11:14.711Z,66.28
2019-03-19T20:13:45.099Z,66.71
2019-03-19T20:16:15.572Z,66.71
2019-03-19T20:18:45.996Z,66.13
2019-03-19T20:21:17.420Z,67.29
2019-03-19T20:23:47.734Z,67.76
2019-03-19T20:26:18.209Z,67.21
2019-03-19T20:28:48.646Z,67.25
2019-03-19T20:31:19.086Z,68.49
2019-03-19T20:33:49.475Z,69.39
2019-03-19T20:36:19.854Z,69.97
2019-03-19T20:38:50.199Z,70.99
2019-03-19T20:41:20.526Z,70.98
2019-03-19T20:43:51.104Z,71.60
2019-03-19T20:46:21.448Z,71.25
2019-03-19T20:48:51.959Z,71.54
2019-03-19T20:51:22.423Z,71.24
2019-03-19T20:53:52.930Z,70.68
2019-03-19T20:56:23.429Z,70.60
2019-03-19T20:58:53.775Z,70.26
2019-03-19T21:01:24.202Z,69.81
2019-03-19T21:03:54.549Z,69.54
2019-03-19T21:06:25.049Z,68.44
2019-03-19T21:08:55.529Z,68.21
2019-03-19T21:11:25.913Z,68.33
2019-03-19T21:13:57.205Z,71.68
2019-03-19T21:16:29.385Z,70.84
2019-03-19T21:18:59.646Z,68.91
2019-03-19T21:21:30.029Z,67.99
2019-03-19T21:24:00.334Z,67.64
2019-03-19T21:26:30.735Z,67.42
2019-03-19T21:29:01.193Z,67.46
2019-03-19T21:31:31.646Z,66.17
2019-03-19T21:34:02.273Z,66.65
2019-03-19T21:36:32.691Z,67.74
2019-03-19T21:39:03.142Z,68.21
2019-03-19T21:41:33.492Z,68.49
2019-03-19T21:44:03.953Z,67.74
2019-03-19T21:46:34.402Z,67.19
2019-03-19T21:49:04.824Z,68.01
2019-03-19T21:51:35.296Z,68.35
2019-03-19T21:54:05.724Z,68.26
2019-03-19T21:56:36.155Z,68.00
2019-03-19T21:59:06.608Z,67.55
2019-03-19T22:01:37.020Z,68.21
2019-03-19T22:04:07.357Z,68.11
2019-03-19T22:06:37.775Z,68.53
2019-03-19T22:09:08.704Z,68.69
2019-03-19T22:11:39.068Z,67.57
2019-03-19T22:14:09.535Z,67.69
2019-03-19T22:16:39.999Z,67.82
2019-03-19T22:19:10.336Z,67.82
2019-03-19T22:21:40.808Z,67.84
2019-03-19T22:24:11.175Z,67.56
2019-03-19T22:26:41.644Z,67.69
2019-03-19T22:29:12.806Z,68.28
2019-03-19T22:31:43.202Z,67.16
2019-03-19T22:34:14.467Z,67.19
2019-03-19T22:36:45.296Z,67.42
2019-03-19T22:39:15.717Z,67.87
2019-03-19T22:41:46.175Z,67.22
2019-03-19T22:44:16.599Z,67.54
2019-03-19T22:46:46.891Z,67.59
2019-03-19T22:49:17.317Z,67.79
2019-03-19T22:51:47.716Z,67.55
2019-03-19T22:54:18.124Z,67.16
2019-03-19T22:56:48.504Z,67.59
2019-03-19T22:59:18.952Z,68.07
2019-03-19T23:01:49.400Z,68.46
2019-03-19T23:04:27.111Z,68.21
2019-03-19T23:06:52.103Z,68.50
2019-03-19T23:09:22.524Z,69.13
2019-03-19T23:11:53.005Z,69.30
2019-03-19T23:14:23.851Z,69.78
2019-03-19T23:16:54.336Z,70.10
2019-03-19T23:19:24.874Z,70.27
2019-03-19T23:21:55.264Z,70.47
2019-03-19T23:24:25.734Z,70.49
2019-03-19T23:26:56.261Z,69.95
2019-03-19T23:29:26.710Z,70.76
2019-03-19T23:31:57.086Z,70.54
2019-03-19T23:34:37.898Z,70.70
2019-03-19T23:36:59.588Z,70.61
2019-03-19T23:39:30.013Z,70.45
2019-03-19T23:42:00.451Z,70.58
2019-03-19T23:44:30.907Z,70.13
2019-03-19T23:47:01.261Z,70.53
2019-03-19T23:49:31.548Z,70.77
2019-03-19T23:52:01.946Z,71.15
2019-03-19T23:54:32.389Z,70.76
2019-03-19T23:57:02.730Z,70.63
2019-03-19T23:59:33.102Z,70.02
